Terminal Aerodrome Forecast
Issued by NWS

Home | Current Version | Previous Version | Text Only | Print | Product List | Glossary On
Versions: 1 2 3 4 5 6 7 8 9 10 11 12 13
000
FTUS43 KEAX 070522
TAFMKC
TAF
KMKC 070522Z 0706/0806 34004KT P6SM OVC100
     FM071400 36006KT P6SM OVC050
     FM071700 33008KT P6SM VCSH OVC035
     FM072100 32009KT P6SM SCT035 OVC100=

USA.gov is the U.S. government's official web portal to all federal, state and local government web resources and services.